Uruapan Gen Rayon, Mexico

8:55 AM CDT on July 24, 2016 (GMT -0500)
Gen Ignacio Lopez Rayon | | Change Station

Elev 5226 ft 19.40 °N, 102.04 °W | Updated 1 hour ago

Scattered Clouds
Scattered Clouds
57 °F
Feels Like 57 °F
N
0
Wind Variable Wind from North

Today
High -- | Low -- °F
--% Chance of Precip.
Yesterday
High -- | Low -- °F
Precip. -- in
Pressure 30.19 in
Visibility 15.0 miles
Clouds Scattered Clouds 28000 ft
Dew Point 55 °F
Humidity 94%
Rainfall 0.00 in
Snow Depth Not available.
7:21 AM 8:27 PM
Waning Gibbous, 76% visible
METAR MMPN 241240Z 00000KT 15SM SCT280 14/13 A3019 RMK 8/001 MI FG TCU SC
Pressure 30.19 in
Visibility 15.0 miles
Clouds Scattered Clouds 28000 ft
Dew Point 55 °F
Humidity 94%
Rainfall 0.00 in
Snow Depth Not available.
7:21 AM 8:27 PM
Waning Gibbous, 76% visible
METAR MMPN 241240Z 00000KT 15SM SCT280 14/13 A3019 RMK 8/001 MI FG TCU SC

10-Day Weather Forecast

No radar image for this location.
×

Almanac

Astronomy

Jul. 24, 2016 Rise Set
Actual Time
Civil Twilight
Nautical Twilight
Astronomical Twilight
Moon
Length of Visible Light
Length of Day
Tomorrow will be .
, % of the Moon is Illuminated

Today's Extremes

Country Highs Country Lows

Community

WunderPhotos

Upload Photos

1,927,057 photos uploaded!

WunderBlog® & News

Nearby

Air Quality

  Air Quality AQ Index Pollutant
Not available.

Snow Depth

Station Depth Elevation

Earthquake Activity

City Distance Mag. Time & Date
Minimum magnitude displayed is 2.5.

Coastal Water Temperatures

Place Temperature

Stations

Nearby Weather Stations

Station Location Temp. Windchill Dew Point Humidity Wind Precip. Elev Updated Type